Time;durP1;ratioP1;P1;durP2;ratioP2;P2;SDS_P1;SDS_P2;PMS_P1;PMS_P2;Temp;Humidity;BMP_temperature;BMP_pressure;BME280_temperature;BME280_humidity;BME280_pressure;Samples;Min_cycle;Max_cycle;Signal;HPM_P1;HPM_P2
2021/07/01 00:02:19;;;;;;;7.62;6.00;;;;;;;20.06;86.95;98711.88;1694084;83;21014;-65
2021/07/01 00:04:45;;;;;;;6.65;6.03;;;;;;;20.03;87.16;98702.91;1711911;83;21098;-65
2021/07/01 00:07:12;;;;;;;5.78;5.28;;;;;;;19.97;87.67;98679.74;1711886;83;21459;-65
2021/07/01 00:09:39;;;;;;;6.40;5.28;;;;;;;19.90;87.83;98670.23;1709759;83;20976;-65
2021/07/01 00:12:06;;;;;;;7.85;5.30;;;;;;;19.83;88.15;98673.91;1704050;83;21194;-65
2021/07/01 00:14:32;;;;;;;6.60;5.40;;;;;;;19.78;88.22;98659.50;1713230;83;21013;-65
2021/07/01 00:16:59;;;;;;;6.10;5.50;;;;;;;19.73;88.34;98651.17;1710280;83;20988;-65
2021/07/01 00:19:26;;;;;;;8.15;5.90;;;;;;;19.71;88.56;98642.55;1706607;83;21422;-65
2021/07/01 00:21:54;;;;;;;6.12;5.53;;;;;;;19.69;88.61;98637.91;1681286;83;21078;-65
2021/07/01 00:24:22;;;;;;;7.37;5.08;;;;;;;19.67;88.26;98640.68;1691754;83;22025;-65
2021/07/01 00:26:48;;;;;;;10.63;6.30;;;;;;;19.65;88.45;98639.16;1690845;83;21672;-65
2021/07/01 00:29:15;;;;;;;6.42;5.83;;;;;;;19.62;88.89;98637.63;1694981;83;21057;-65
2021/07/01 00:31:41;;;;;;;6.40;5.05;;;;;;;19.58;89.34;98631.80;1695044;83;21081;-65
2021/07/01 00:34:08;;;;;;;11.28;5.90;;;;;;;19.57;89.36;98635.92;1707434;83;21163;-65
2021/07/01 00:36:35;;;;;;;7.97;5.90;;;;;;;19.52;89.36;98627.10;1686444;83;21070;-66
2021/07/01 00:39:05;;;;;;;7.20;6.10;;;;;;;19.49;89.19;98615.97;1706632;83;21082;-66
2021/07/01 00:41:32;;;;;;;7.80;6.72;;;;;;;19.45;89.27;98605.34;1692201;83;21039;-65
2021/07/01 00:44:01;;;;;;;8.25;6.00;;;;;;;19.42;89.39;98602.98;1700435;83;21105;-66
2021/07/01 00:46:30;;;;;;;7.47;6.78;;;;;;;19.40;89.76;98602.28;1696209;83;21000;-65
2021/07/01 00:48:57;;;;;;;8.33;6.15;;;;;;;19.38;89.96;98593.71;1709769;83;22001;-65
2021/07/01 00:51:23;;;;;;;7.25;5.92;;;;;;;19.35;90.12;98586.08;1699694;83;21525;-65
2021/07/01 00:53:50;;;;;;;6.78;6.17;;;;;;;19.33;90.29;98586.22;1703277;83;20933;-65
2021/07/01 00:56:19;;;;;;;6.95;6.33;;;;;;;19.29;90.60;98591.41;1696536;83;20971;-65
2021/07/01 00:58:46;;;;;;;7.03;6.33;;;;;;;19.27;90.60;98588.08;1706414;83;20984;-65
2021/07/01 01:01:12;;;;;;;7.30;6.03;;;;;;;19.24;90.78;98577.81;1699777;83;21127;-65
2021/07/01 01:03:39;;;;;;;8.33;6.22;;;;;;;19.19;90.86;98582.17;1699514;83;21081;-65
2021/07/01 01:06:07;;;;;;;6.90;6.30;;;;;;;19.15;90.97;98590.04;1712939;83;21582;-66
2021/07/01 01:08:35;;;;;;;7.15;5.92;;;;;;;19.11;91.60;98595.23;1695478;83;21431;-65
2021/07/01 01:11:02;;;;;;;8.83;6.05;;;;;;;19.10;92.13;98582.20;1702228;83;20994;-65
2021/07/01 01:13:42;;;;;;;7.00;6.00;;;;;;;19.08;92.25;98579.70;1678564;83;21808;-64
2021/07/01 01:16:14;;;;;;;16.67;5.87;;;;;;;19.06;92.25;98568.94;1655534;84;21650;-64
2021/07/01 01:18:40;;;;;;;7.17;5.97;;;;;;;19.02;92.02;98572.33;1696663;83;20977;-64
2021/07/01 01:21:11;;;;;;;6.50;5.70;;;;;;;19.00;92.19;98569.48;1714302;83;20999;-64
2021/07/01 01:23:38;;;;;;;7.00;6.30;;;;;;;18.97;92.42;98571.94;1707877;83;21441;-64
2021/07/01 01:26:05;;;;;;;8.63;5.40;;;;;;;18.93;92.43;98576.64;1699320;83;21137;-64
2021/07/01 01:28:33;;;;;;;10.72;6.55;;;;;;;18.91;92.68;98575.95;1693626;83;21586;-64
2021/07/01 01:31:00;;;;;;;9.55;6.50;;;;;;;18.89;92.80;98581.84;1675332;84;20979;-65
2021/07/01 01:33:27;;;;;;;8.18;6.50;;;;;;;18.88;92.81;98579.34;1687996;83;21038;-66
2021/07/01 01:35:54;;;;;;;8.78;6.03;;;;;;;18.86;92.83;98579.47;1701882;83;21077;-65
2021/07/01 01:38:20;;;;;;;8.33;5.67;;;;;;;18.85;92.78;98589.66;1691218;83;21957;-65
2021/07/01 01:40:50;;;;;;;7.90;5.80;;;;;;;18.82;92.92;98583.34;1702203;83;21222;-65
2021/07/01 01:43:20;;;;;;;8.10;6.62;;;;;;;18.79;93.04;98584.93;1693553;84;20964;-64
2021/07/01 01:45:46;;;;;;;12.33;6.28;;;;;;;18.77;93.10;98592.16;1693826;83;21121;-65
2021/07/01 01:48:13;;;;;;;7.05;5.87;;;;;;;18.74;93.15;98608.23;1690497;83;21033;-65
2021/07/01 01:50:40;;;;;;;7.12;5.65;;;;;;;18.72;93.41;98611.97;1704634;83;21945;-64
2021/07/01 01:53:08;;;;;;;7.10;6.30;;;;;;;18.69;93.55;98625.41;1687222;83;21636;-65
2021/07/01 01:55:37;;;;;;;11.55;5.97;;;;;;;18.65;93.83;98633.22;1697361;83;21588;-65
2021/07/01 01:58:04;;;;;;;8.25;5.80;;;;;;;18.63;94.22;98625.94;1717099;83;21484;-65
2021/07/01 02:00:32;;;;;;;7.60;5.65;;;;;;;18.62;94.32;98626.42;1696238;83;21065;-65
2021/07/01 02:02:59;;;;;;;6.67;6.08;;;;;;;18.64;94.32;98622.34;1711237;83;21123;-65
2021/07/01 02:05:31;;;;;;;9.60;6.57;;;;;;;18.61;94.21;98614.70;1687290;83;21124;-65
2021/07/01 02:07:57;;;;;;;7.87;6.53;;;;;;;18.62;94.09;98616.37;1716003;83;21055;-65
2021/07/01 02:10:28;;;;;;;9.35;5.70;;;;;;;18.62;93.92;98626.91;1704879;83;21518;-65
2021/07/01 02:12:56;;;;;;;9.20;5.62;;;;;;;18.63;93.76;98631.20;1705826;83;21377;-65
2021/07/01 02:15:24;;;;;;;12.55;6.80;;;;;;;18.63;93.69;98633.84;1701654;83;21109;-65
2021/07/01 02:17:55;;;;;;;12.23;6.67;;;;;;;18.63;93.56;98638.63;1707199;83;21034;-65
2021/07/01 02:20:25;;;;;;;6.55;5.85;;;;;;;18.63;93.74;98650.47;1706857;83;20949;-65
2021/07/01 02:22:51;;;;;;;8.70;6.20;;;;;;;18.63;93.74;98650.47;1711424;83;20998;-65
2021/07/01 02:25:20;;;;;;;8.20;6.95;;;;;;;18.65;93.65;98664.83;1694943;83;21470;-65
2021/07/01 02:27:54;;;;;;;9.10;6.33;;;;;;;18.66;93.49;98673.08;1692159;83;21074;-65
2021/07/01 02:30:21;;;;;;;8.48;6.33;;;;;;;18.64;93.61;98683.75;1709548;83;21567;-65
2021/07/01 02:32:47;;;;;;;10.90;7.47;;;;;;;18.67;93.84;98687.92;1692046;83;21022;-65
2021/07/01 02:35:15;;;;;;;8.30;5.92;;;;;;;18.67;94.01;98688.75;1693559;83;21062;-65
2021/07/01 02:38:01;;;;;;;6.97;6.37;;;;;;;18.69;94.00;98693.41;1682721;83;21116;-66
2021/07/01 02:40:30;;;;;;;10.68;5.75;;;;;;;18.71;93.99;98709.08;1708829;83;21241;-66
2021/07/01 02:42:58;;;;;;;7.25;6.20;;;;;;;18.72;93.91;98717.34;1704109;83;20945;-65
2021/07/01 02:45:25;;;;;;;10.00;6.25;;;;;;;18.74;93.63;98727.26;1715249;83;20992;-65
2021/07/01 02:47:53;;;;;;;8.70;6.37;;;;;;;18.77;93.24;98733.59;1699410;83;21084;-65
2021/07/01 02:50:20;;;;;;;11.35;5.83;;;;;;;18.83;92.95;98738.30;1714069;83;21000;-65
2021/07/01 02:52:46;;;;;;;9.30;5.60;;;;;;;18.89;92.56;98747.00;1704844;83;21553;-65
2021/07/01 02:55:13;;;;;;;9.85;6.72;;;;;;;18.93;92.36;98753.19;1702039;83;21382;-65
2021/07/01 02:57:41;;;;;;;10.00;6.85;;;;;;;18.99;92.11;98768.09;1693322;83;21105;-65
2021/07/01 03:00:16;;;;;;;8.03;6.42;;;;;;;19.05;91.94;98780.27;1691429;83;21033;-65
2021/07/01 03:02:45;;;;;;;10.05;7.08;;;;;;;19.13;91.68;98782.25;1712620;83;21094;-65
2021/07/01 03:05:13;;;;;;;14.45;9.40;;;;;;;19.19;91.32;98789.59;1695483;83;21823;-65
2021/07/01 03:07:41;;;;;;;12.05;8.85;;;;;;;19.23;91.14;98788.36;1692363;83;21092;-65
2021/07/01 03:10:10;;;;;;;8.33;6.50;;;;;;;19.29;90.88;98810.25;1695707;83;20982;-65
2021/07/01 03:12:38;;;;;;;9.40;6.17;;;;;;;19.35;90.54;98809.72;1691543;83;21763;-65
2021/07/01 03:15:06;;;;;;;8.63;6.42;;;;;;;19.39;90.05;98815.05;1699161;83;21285;-65
2021/07/01 03:17:33;;;;;;;10.55;6.42;;;;;;;19.44;89.93;98816.80;1709730;83;21886;-65
2021/07/01 03:20:00;;;;;;;10.38;6.97;;;;;;;19.49;89.59;98813.77;1696876;83;20970;-65
2021/07/01 03:22:44;;;;;;;8.83;6.87;;;;;;;19.55;89.12;98807.98;1689993;83;21106;-65
2021/07/01 03:25:13;;;;;;;9.93;6.50;;;;;;;19.63;88.65;98805.97;1691645;83;21081;-65
2021/07/01 03:27:40;;;;;;;8.65;5.75;;;;;;;19.70;88.26;98802.66;1692155;83;20964;-65
2021/07/01 03:30:09;;;;;;;10.43;6.17;;;;;;;19.75;87.88;98795.17;1706218;83;22412;-65
2021/07/01 03:32:36;;;;;;;9.28;6.25;;;;;;;19.83;87.58;98801.06;1664145;83;21235;-65
2021/07/01 03:35:04;;;;;;;7.30;6.55;;;;;;;19.88;86.81;98804.13;1707247;83;21025;-65
2021/07/01 03:37:48;;;;;;;9.80;6.97;;;;;;;19.91;86.57;98805.17;1708213;83;20948;-65
2021/07/01 03:40:26;;;;;;;8.03;6.28;;;;;;;19.98;86.18;98805.47;1704597;83;21674;-65
2021/07/01 03:42:53;;;;;;;8.50;7.28;;;;;;;20.05;86.09;98789.39;1691200;83;21065;-65
2021/07/01 03:45:20;;;;;;;16.25;8.08;;;;;;;20.14;85.83;98791.21;1692857;83;21244;-65
2021/07/01 03:47:47;;;;;;;10.88;7.17;;;;;;;20.19;85.62;98786.32;1705836;83;21089;-66
2021/07/01 03:50:15;;;;;;;10.90;6.75;;;;;;;20.25;85.28;98790.56;1707323;83;21040;-65
2021/07/01 03:53:00;;;;;;;10.03;7.10;;;;;;;20.33;84.84;98795.15;1709728;83;21022;-65
2021/07/01 03:55:27;;;;;;;16.57;7.62;;;;;;;20.43;84.20;98790.70;1714054;83;21159;-65
2021/07/01 03:57:54;;;;;;;10.35;6.75;;;;;;;20.52;83.93;98788.53;1722408;83;21433;-64
2021/07/01 04:00:21;;;;;;;12.07;7.10;;;;;;;20.62;83.46;98795.09;1663099;84;21188;-64
2021/07/01 04:02:52;;;;;;;10.85;6.97;;;;;;;20.72;82.76;98795.92;1687806;83;21926;-64
2021/07/01 04:05:20;;;;;;;11.40;6.83;;;;;;;20.79;82.46;98789.06;1691750;83;21523;-64
2021/07/01 04:07:48;;;;;;;11.20;7.30;;;;;;;20.88;82.09;98786.89;1655852;84;21114;-64
2021/07/01 04:10:17;;;;;;;10.40;6.60;;;;;;;20.98;81.88;98790.30;1694518;83;20985;-64
2021/07/01 04:12:45;;;;;;;14.73;9.23;;;;;;;21.10;81.81;98796.26;1702613;83;21494;-64
2021/07/01 04:15:32;;;;;;;15.93;7.53;;;;;;;21.23;81.88;98789.32;1696617;83;21030;-65
2021/07/01 04:18:18;;;;;;;27.90;7.80;;;;;;;21.37;81.13;98793.30;1690843;83;21081;-64
2021/07/01 04:21:04;;;;;;;8.93;7.58;;;;;;;21.48;80.78;98779.86;1699010;83;21187;-65
2021/07/01 04:23:48;;;;;;;19.70;8.58;;;;;;;21.61;80.40;98789.09;1703712;83;21088;-64
2021/07/01 04:26:34;;;;;;;8.90;6.95;;;;;;;21.74;79.90;98787.41;1715094;83;21056;-64
2021/07/01 04:29:02;;;;;;;16.82;7.37;;;;;;;21.87;79.47;98781.23;1712888;83;21000;-64
2021/07/01 04:31:32;;;;;;;11.30;7.83;;;;;;;21.98;78.98;98784.97;1666369;83;21085;-65
2021/07/01 04:34:03;;;;;;;10.60;7.67;;;;;;;22.07;78.40;98786.41;1694278;83;21148;-64
2021/07/01 04:36:30;;;;;;;37.33;10.98;;;;;;;22.12;77.79;98787.63;1699435;83;20972;-64
2021/07/01 04:38:57;;;;;;;20.57;9.30;;;;;;;22.20;77.71;98786.34;1708766;83;21089;-65
2021/07/01 04:41:24;;;;;;;17.07;11.45;;;;;;;22.31;77.67;98786.61;1695756;83;21101;-65
2021/07/01 04:43:53;;;;;;;27.77;8.63;;;;;;;22.45;77.60;98783.88;1707817;83;21056;-64
2021/07/01 04:46:20;;;;;;;23.62;9.35;;;;;;;22.60;76.75;98782.31;1662698;84;23202;-65
2021/07/01 04:48:50;;;;;;;34.78;11.80;;;;;;;22.76;76.49;98782.44;1702291;83;21049;-65
2021/07/01 04:51:17;;;;;;;40.75;13.35;;;;;;;22.94;76.30;98775.27;1692929;83;21668;-66
2021/07/01 04:54:02;;;;;;;36.45;10.08;;;;;;;23.17;75.80;98774.70;1674595;85;21015;-65
2021/07/01 04:56:48;;;;;;;14.50;8.93;;;;;;;23.43;74.78;98781.23;1706705;83;20997;-65
2021/07/01 04:59:19;;;;;;;20.15;8.75;;;;;;;23.59;73.53;98786.11;1704201;83;21180;-66
2021/07/01 05:01:55;;;;;;;17.98;7.83;;;;;;;23.72;72.46;98789.64;1702770;83;20978;-66
2021/07/01 05:04:39;;;;;;;30.00;8.80;;;;;;;23.88;72.05;98804.75;1695204;83;21050;-65
2021/07/01 05:07:07;;;;;;;16.07;8.13;;;;;;;24.11;71.18;98800.96;1703693;83;20961;-65
2021/07/01 05:09:34;;;;;;;17.15;7.90;;;;;;;24.42;69.62;98799.81;1662805;84;21736;-65
2021/07/01 05:12:04;;;;;;;14.60;7.95;;;;;;;24.74;68.58;98807.75;1681747;83;22202;-65
2021/07/01 05:14:33;;;;;;;15.55;8.53;;;;;;;25.08;67.25;98799.53;1690557;83;21519;-64
2021/07/01 05:16:59;;;;;;;16.17;8.43;;;;;;;25.52;66.43;98799.00;1679712;84;21017;-67
2021/07/01 05:19:27;;;;;;;15.45;9.50;;;;;;;26.01;64.25;98801.70;1685652;83;21041;-66
2021/07/01 05:22:03;;;;;;;29.35;10.08;;;;;;;26.43;63.06;98799.88;1687209;83;21482;-66
2021/07/01 05:24:37;;;;;;;27.65;9.93;;;;;;;26.92;61.19;98798.06;1647400;85;21120;-67
2021/07/01 05:27:22;;;;;;;31.35;11.93;;;;;;;27.40;59.83;98797.98;1683802;83;21533;-65
2021/07/01 05:30:04;;;;;;;14.98;8.93;;;;;;;27.82;58.50;98797.77;1679642;83;21613;-67
2021/07/01 05:32:42;;;;;;;15.75;8.15;;;;;;;28.25;56.78;98797.80;1640154;86;21113;-66
2021/07/01 05:35:16;;;;;;;13.28;9.20;;;;;;;28.57;55.66;98797.76;1682356;84;20987;-65
2021/07/01 05:37:44;;;;;;;45.00;12.78;;;;;;;28.82;55.12;98797.63;1683983;84;21160;-65
2021/07/01 05:40:15;;;;;;;14.10;8.03;;;;;;;29.10;54.15;98795.74;1689599;84;22100;-65
2021/07/01 05:42:40;;;;;;;13.85;7.90;;;;;;;29.40;53.07;98790.95;1688856;83;21434;-65
2021/07/01 05:45:09;;;;;;;34.08;11.35;;;;;;;29.69;51.43;98790.33;1644165;85;21219;-65
2021/07/01 05:47:36;;;;;;;17.60;9.38;;;;;;;29.82;51.25;98786.33;1686373;83;21083;-65
2021/07/01 05:50:05;;;;;;;9.73;7.58;;;;;;;30.05;50.78;98794.85;1638565;86;21108;-66
2021/07/01 05:52:33;;;;;;;16.30;8.13;;;;;;;30.23;49.36;98792.08;1644475;85;20978;-66
2021/07/01 05:55:00;;;;;;;41.75;9.18;;;;;;;30.28;48.93;98790.95;1655823;85;21528;-65
2021/07/01 05:57:28;;;;;;;30.65;9.85;;;;;;;30.31;48.86;98786.00;1646046;85;21470;-66
2021/07/01 05:59:55;;;;;;;33.02;10.03;;;;;;;30.54;49.08;98791.47;1662107;85;21077;-66
2021/07/01 06:02:22;;;;;;;20.25;7.92;;;;;;;30.79;48.01;98791.95;1675714;84;21128;-66
2021/07/01 06:04:49;;;;;;;35.25;9.10;;;;;;;30.99;47.33;98789.74;1688172;84;21521;-65
2021/07/01 06:07:34;;;;;;;11.43;8.55;;;;;;;31.11;46.91;98796.98;1692636;84;21033;-65
2021/07/01 06:10:04;;;;;;;26.70;8.95;;;;;;;31.09;47.07;98798.20;1695892;83;20982;-66
2021/07/01 06:12:32;;;;;;;11.90;8.63;;;;;;;31.09;47.18;98798.20;1687507;84;20957;-66
2021/07/01 06:14:59;;;;;;;8.10;7.30;;;;;;;31.15;46.64;98802.25;1688563;83;23261;-66
2021/07/01 06:17:27;;;;;;;28.47;7.40;;;;;;;31.13;46.84;98794.91;1689073;83;21053;-66
2021/07/01 06:19:54;;;;;;;29.63;7.92;;;;;;;31.00;46.71;98788.70;1644008;86;21077;-65
2021/07/01 06:22:21;;;;;;;12.30;6.70;;;;;;;30.91;46.56;98794.02;1633071;86;21131;-66
2021/07/01 06:24:55;;;;;;;9.70;6.67;;;;;;;30.88;46.74;98793.09;1638340;86;21641;-66
2021/07/01 06:27:36;;;;;;;14.55;6.55;;;;;;;30.82;46.34;98782.66;1634866;86;21798;-68
2021/07/01 06:30:19;;;;;;;17.57;6.90;;;;;;;30.68;46.10;98779.19;1682379;84;21533;-65
2021/07/01 06:32:45;;;;;;;14.73;6.58;;;;;;;30.54;46.29;98774.02;1684200;83;20973;-65
2021/07/01 06:35:19;;;;;;;14.70;6.72;;;;;;;30.41;46.20;98760.09;1647834;85;21526;-66
2021/07/01 06:37:46;;;;;;;23.38;7.50;;;;;;;30.29;46.34;98759.90;1682485;84;21588;-67
2021/07/01 06:40:35;;;;;;;15.58;6.97;;;;;;;30.03;46.66;98766.59;1682654;84;21803;-66
2021/07/01 06:43:21;;;;;;;20.05;8.48;;;;;;;29.64;47.56;98757.94;1688062;84;20954;-66
2021/07/01 06:46:07;;;;;;;11.25;6.53;;;;;;;29.40;48.34;98756.12;1685928;83;21033;-66
2021/07/01 06:48:52;;;;;;;20.57;7.00;;;;;;;29.25;49.15;98743.88;1684793;84;21014;-65
2021/07/01 06:51:41;;;;;;;18.07;8.33;;;;;;;29.14;48.83;98746.64;1643266;86;21152;-66
2021/07/01 06:54:26;;;;;;;11.75;7.00;;;;;;;29.12;49.69;98752.70;1681051;84;21147;-67
2021/07/01 06:57:11;;;;;;;15.75;6.42;;;;;;;29.18;49.73;98754.56;1685681;84;20946;-67
2021/07/01 06:59:37;;;;;;;7.90;5.80;;;;;;;29.18;49.11;98745.19;1686748;84;20961;-65
2021/07/01 07:02:04;;;;;;;12.47;6.70;;;;;;;29.13;49.06;98747.66;1637814;84;21231;-67
2021/07/01 07:04:33;;;;;;;14.70;6.50;;;;;;;29.07;49.65;98753.80;1633742;86;21108;-67
2021/07/01 07:07:02;;;;;;;20.20;7.10;;;;;;;29.02;50.54;98754.39;1680969;84;21172;-66
2021/07/01 07:09:29;;;;;;;17.23;7.45;;;;;;;29.00;51.01;98747.58;1682314;83;21005;-67
2021/07/01 07:11:55;;;;;;;18.35;7.67;;;;;;;29.02;51.42;98744.20;1692167;83;21505;-65
2021/07/01 07:14:22;;;;;;;22.10;8.03;;;;;;;29.06;50.24;98734.23;1633018;86;21037;-66
2021/07/01 07:16:49;;;;;;;14.68;6.65;;;;;;;29.06;50.00;98730.73;1684167;84;21202;-66
2021/07/01 07:19:17;;;;;;;16.90;6.83;;;;;;;29.03;49.65;98728.45;1682389;84;22343;-65
2021/07/01 07:21:45;;;;;;;16.57;6.75;;;;;;;28.94;49.03;98732.34;1708898;83;21576;-65
2021/07/01 07:24:16;;;;;;;26.80;7.10;;;;;;;28.83;49.50;98743.08;1684301;84;21541;-66
2021/07/01 07:26:44;;;;;;;10.05;6.00;;;;;;;28.75;50.67;98740.03;1679169;84;21050;-67
2021/07/01 07:29:11;;;;;;;17.05;6.15;;;;;;;28.75;50.87;98728.50;1657384;83;21066;-67
2021/07/01 07:31:39;;;;;;;7.80;5.28;;;;;;;28.74;50.34;98733.03;1685514;84;21156;-67
2021/07/01 07:34:05;;;;;;;21.02;6.95;;;;;;;28.69;50.05;98723.42;1656670;86;21546;-67
2021/07/01 07:36:33;;;;;;;13.35;6.08;;;;;;;28.68;49.79;98730.31;1685826;84;21049;-66
2021/07/01 07:39:00;;;;;;;17.12;6.83;;;;;;;28.71;49.85;98726.73;1650559;86;21557;-67
2021/07/01 07:41:27;;;;;;;20.75;6.92;;;;;;;28.80;50.19;98726.90;1687641;83;20970;-65
2021/07/01 07:43:55;;;;;;;16.65;5.72;;;;;;;28.85;49.97;98724.14;1679923;84;21821;-66
2021/07/01 07:46:25;;;;;;;19.77;6.87;;;;;;;28.91;49.88;98728.72;1685686;83;21592;-65
2021/07/01 07:48:52;;;;;;;22.25;6.72;;;;;;;28.97;50.07;98734.11;1684963;84;21085;-65
2021/07/01 07:51:23;;;;;;;15.43;6.17;;;;;;;29.12;49.43;98724.59;1688939;83;21053;-65
2021/07/01 07:53:54;;;;;;;13.78;5.72;;;;;;;29.23;48.26;98725.34;1632838;86;21210;-64
2021/07/01 07:56:27;;;;;;;20.45;5.65;;;;;;;29.23;47.79;98724.00;1683409;83;21127;-66
2021/07/01 07:58:55;;;;;;;16.67;6.22;;;;;;;29.24;47.04;98722.97;1681087;83;21175;-66
2021/07/01 08:01:22;;;;;;;24.20;7.20;;;;;;;29.30;47.86;98714.66;1684655;84;21010;-67
2021/07/01 08:03:53;;;;;;;30.40;6.75;;;;;;;29.43;48.16;98708.02;1686615;83;21074;-67
2021/07/01 08:06:20;;;;;;;16.32;6.00;;;;;;;29.59;47.62;98710.31;1688034;83;20942;-67
2021/07/01 08:08:46;;;;;;;19.37;5.85;;;;;;;29.81;46.81;98710.44;1687067;84;21215;-66
2021/07/01 08:11:13;;;;;;;19.25;6.15;;;;;;;30.04;46.17;98705.23;1685040;84;21427;-67
2021/07/01 08:13:40;;;;;;;18.10;6.15;;;;;;;30.26;45.40;98709.86;1633543;86;21257;-67
2021/07/01 08:16:07;;;;;;;15.35;7.15;;;;;;;30.45;44.42;98707.14;1685046;84;21541;-67
2021/07/01 08:18:41;;;;;;;28.25;7.37;;;;;;;30.60;44.62;98713.64;1683922;84;21564;-67
2021/07/01 08:21:08;;;;;;;21.02;6.12;;;;;;;30.77;44.52;98710.83;1688185;83;21169;-67
2021/07/01 08:23:35;;;;;;;36.75;7.78;;;;;;;30.98;44.55;98712.37;1679755;84;21083;-65
2021/07/01 08:26:02;;;;;;;19.87;5.92;;;;;;;31.18;44.63;98707.77;1689289;83;21003;-66
2021/07/01 08:28:29;;;;;;;11.50;4.75;;;;;;;31.39;43.72;98705.29;1687507;84;21029;-66
2021/07/01 08:31:06;;;;;;;11.15;4.03;;;;;;;31.58;42.06;98703.52;1685563;83;21605;-66
2021/07/01 08:33:35;;;;;;;23.05;5.53;;;;;;;31.69;41.88;98703.39;1687064;83;21172;-66
2021/07/01 08:36:02;;;;;;;8.18;4.30;;;;;;;31.78;41.17;98694.82;1693766;84;21532;-63
2021/07/01 08:38:36;;;;;;;61.37;7.10;;;;;;;31.85;40.54;98682.69;1635251;86;21769;-65
2021/07/01 08:41:16;;;;;;;15.65;4.92;;;;;;;31.94;40.13;98681.90;1668467;84;21048;-65
2021/07/01 08:43:56;;;;;;;12.23;4.42;;;;;;;32.02;40.60;98681.61;1685248;84;22489;-66
2021/07/01 08:46:28;;;;;;;11.22;4.00;;;;;;;32.15;40.14;98680.16;1690245;84;21089;-68
2021/07/01 08:49:05;;;;;;;14.07;4.80;;;;;;;32.28;39.51;98677.36;1684527;83;21053;-65
2021/07/01 08:51:39;;;;;;;10.40;3.98;;;;;;;32.38;39.15;98682.22;1679212;84;21105;-64
2021/07/01 08:54:21;;;;;;;10.03;3.98;;;;;;;32.39;38.69;98677.96;1686687;84;21512;-67
2021/07/01 08:56:49;;;;;;;7.47;4.12;;;;;;;32.35;38.40;98669.23;1650849;86;20987;-65
2021/07/01 08:59:21;;;;;;;39.90;7.17;;;;;;;32.30;38.23;98671.24;1689146;83;21239;-66
2021/07/01 09:01:58;;;;;;;11.20;4.67;;;;;;;32.30;38.38;98678.48;1689833;83;20998;-66
2021/07/01 09:04:32;;;;;;;8.70;4.90;;;;;;;32.30;38.83;98673.94;1685922;83;21046;-65
2021/07/01 09:07:03;;;;;;;14.63;4.97;;;;;;;32.33;39.47;98670.80;1684343;85;21437;-66
2021/07/01 09:09:35;;;;;;;12.70;4.90;;;;;;;32.35;39.15;98664.67;1686782;83;21038;-65
2021/07/01 09:12:05;;;;;;;10.03;4.45;;;;;;;32.41;39.38;98665.11;1684715;83;21735;-66
2021/07/01 09:14:32;;;;;;;15.88;7.15;;;;;;;32.49;38.60;98664.00;1654536;86;21607;-65
2021/07/01 09:17:02;;;;;;;15.03;5.10;;;;;;;32.51;39.08;98657.35;1638127;86;21114;-66
2021/07/01 09:19:29;;;;;;;13.55;4.95;;;;;;;32.56;38.84;98647.79;1651160;86;21471;-65
2021/07/01 09:21:57;;;;;;;13.18;4.87;;;;;;;32.60;38.70;98643.57;1686854;84;21529;-65
2021/07/01 09:24:25;;;;;;;13.50;5.60;;;;;;;32.66;38.73;98647.55;1688096;83;21792;-66
2021/07/01 09:26:52;;;;;;;9.93;4.87;;;;;;;32.75;38.68;98645.41;1684222;83;21001;-66
2021/07/01 09:29:18;;;;;;;8.63;5.05;;;;;;;32.80;38.44;98638.28;1682076;83;21459;-66
2021/07/01 09:31:45;;;;;;;14.80;5.15;;;;;;;32.82;38.71;98642.09;1685445;83;21557;-65
2021/07/01 09:34:12;;;;;;;29.25;6.65;;;;;;;32.81;38.58;98639.10;1686910;84;21162;-65
2021/07/01 09:36:38;;;;;;;16.27;7.65;;;;;;;32.76;38.99;98638.45;1683324;83;21188;-66
2021/07/01 09:39:07;;;;;;;13.18;5.00;;;;;;;32.78;38.97;98638.20;1651003;86;20991;-66
2021/07/01 09:41:33;;;;;;;8.43;4.40;;;;;;;32.85;38.80;98624.14;1638153;86;21105;-67
2021/07/01 09:44:01;;;;;;;9.20;4.60;;;;;;;32.99;38.06;98631.51;1648055;86;21017;-65
2021/07/01 09:46:28;;;;;;;7.87;4.70;;;;;;;33.14;38.33;98626.55;1688931;84;21009;-65
2021/07/01 09:48:58;;;;;;;10.80;4.90;;;;;;;33.26;37.89;98625.27;1684281;84;21830;-64
2021/07/01 09:51:28;;;;;;;16.80;4.97;;;;;;;33.30;38.31;98613.80;1686351;83;21072;-66
2021/07/01 09:53:54;;;;;;;12.35;3.98;;;;;;;33.35;38.06;98615.81;1681849;84;21009;-65
2021/07/01 09:56:38;;;;;;;18.07;5.65;;;;;;;33.36;38.08;98607.50;1685549;84;21522;-65
2021/07/01 09:59:16;;;;;;;7.25;3.90;;;;;;;33.36;37.43;98607.50;1687600;83;21042;-65
2021/07/01 10:01:42;;;;;;;8.20;4.00;;;;;;;33.28;37.03;98605.65;1645393;86;21192;-65
2021/07/01 10:04:08;;;;;;;12.78;5.22;;;;;;;33.19;36.74;98599.20;1683186;83;21076;-64
2021/07/01 10:06:38;;;;;;;39.38;6.12;;;;;;;33.14;37.11;98596.39;1639537;85;21094;-65
2021/07/01 10:09:06;;;;;;;6.90;4.08;;;;;;;33.12;36.59;98591.75;1687202;84;21096;-65
2021/07/01 10:11:41;;;;;;;5.85;3.90;;;;;;;33.14;35.78;98588.83;1684340;84;21415;-65
2021/07/01 10:14:12;;;;;;;15.05;4.87;;;;;;;33.11;35.28;98596.84;1684202;83;21222;-65
2021/07/01 10:16:39;;;;;;;16.87;4.37;;;;;;;33.04;35.63;98593.94;1684917;84;21654;-65
2021/07/01 10:19:09;;;;;;;18.25;4.22;;;;;;;33.08;36.50;98598.65;1636014;86;20982;-66
2021/07/01 10:21:37;;;;;;;13.22;4.25;;;;;;;33.19;36.45;98585.72;1632637;86;21133;-66
2021/07/01 10:24:19;;;;;;;6.87;3.80;;;;;;;33.30;36.18;98581.46;1685478;83;21096;-65
2021/07/01 10:26:48;;;;;;;9.90;4.00;;;;;;;33.30;35.82;98582.81;1637683;86;21202;-66
2021/07/01 10:29:17;;;;;;;9.30;4.65;;;;;;;33.19;35.90;98584.37;1692515;84;21009;-66
2021/07/01 10:31:57;;;;;;;9.90;4.25;;;;;;;33.06;36.56;98587.27;1688318;83;21006;-66
2021/07/01 10:34:24;;;;;;;12.80;4.35;;;;;;;32.99;36.28;98579.80;1687459;84;21045;-66
2021/07/01 10:37:26;;;;;;;15.30;5.90;;;;;;;32.89;36.87;98580.89;1686764;83;21526;-66
2021/07/01 10:39:50;;;;;;;6.87;3.80;;;;;;;32.79;37.18;98584.12;1682927;84;21349;-65
2021/07/01 10:42:18;;;;;;;6.17;4.00;;;;;;;32.71;37.23;98574.17;1680883;84;21001;-65
2021/07/01 10:44:45;;;;;;;29.05;6.33;;;;;;;32.71;37.02;98583.08;1681509;84;21085;-64
2021/07/01 10:47:32;;;;;;;21.55;4.55;;;;;;;32.66;37.52;98580.23;1696775;83;21093;-65
2021/07/01 10:50:01;;;;;;;7.10;4.65;;;;;;;32.66;37.42;98577.55;1688832;83;21552;-65
2021/07/01 10:52:37;;;;;;;15.08;4.28;;;;;;;32.69;37.30;98581.66;1688475;83;21202;-66
2021/07/01 10:55:05;;;;;;;10.55;3.90;;;;;;;32.62;36.99;98588.46;1682691;84;21005;-65
2021/07/01 10:57:32;;;;;;;9.55;4.47;;;;;;;32.46;37.57;98583.70;1687486;83;21061;-66
2021/07/01 10:59:59;;;;;;;6.10;3.52;;;;;;;32.31;38.08;98590.81;1685868;84;21013;-65
2021/07/01 11:02:33;;;;;;;9.43;3.85;;;;;;;32.16;37.71;98583.09;1685854;84;20961;-65
2021/07/01 11:05:03;;;;;;;10.75;4.12;;;;;;;32.01;37.73;98582.61;1642279;85;21204;-65
2021/07/01 11:07:44;;;;;;;9.93;3.90;;;;;;;31.91;38.12;98589.03;1684195;83;21223;-66
2021/07/01 11:10:12;;;;;;;5.85;3.80;;;;;;;31.74;38.44;98594.16;1688792;83;21028;-66
2021/07/01 11:12:47;;;;;;;8.20;3.35;;;;;;;31.61;38.79;98596.08;1690954;83;20973;-68
2021/07/01 11:15:14;;;;;;;5.50;3.22;;;;;;;31.54;39.24;98592.65;1685572;84;21065;-65
2021/07/01 11:17:44;;;;;;;11.80;4.20;;;;;;;31.59;39.52;98589.58;1679523;84;21175;-66
2021/07/01 11:20:22;;;;;;;19.20;4.60;;;;;;;31.69;38.93;98587.27;1686440;84;21154;-66
2021/07/01 11:22:54;;;;;;;13.68;4.45;;;;;;;31.79;38.66;98576.00;1680462;84;21107;-65
2021/07/01 11:25:28;;;;;;;7.60;3.75;;;;;;;31.93;38.46;98580.22;1687083;84;21065;-66
2021/07/01 11:28:16;;;;;;;11.88;4.03;;;;;;;32.04;38.22;98582.16;1638979;86;20982;-66
2021/07/01 11:30:54;;;;;;;16.15;4.70;;;;;;;32.08;38.49;98579.86;1673762;84;21119;-65
2021/07/01 11:33:21;;;;;;;19.60;6.37;;;;;;;32.10;38.58;98575.08;1684898;84;21001;-65
2021/07/01 11:35:49;;;;;;;4.90;3.65;;;;;;;32.11;39.05;98572.17;1685516;84;21025;-65
2021/07/01 11:38:31;;;;;;;11.53;5.67;;;;;;;32.05;38.47;98569.02;1685817;85;21057;-65
2021/07/01 11:41:00;;;;;;;8.20;4.12;;;;;;;32.00;39.18;98578.27;1681493;85;20951;-65
2021/07/01 11:43:28;;;;;;;13.85;4.40;;;;;;;31.95;39.58;98582.17;1677775;85;21236;-65
2021/07/01 11:45:56;;;;;;;12.40;4.20;;;;;;;31.90;40.56;98582.53;1680665;83;21462;-66